YBEC weather

Beacon Airport
Western Australia, Australia

Public forecast

Using degrees Celsius for public forecast. Weather courtesy of forecast.io.

METAR (pilot weather report)

Closest report is RAAF Base Pearce, 119.5 nm (221.3 km) SW. Retrieved 2019/04/24 09:30 UTC (15 minutes ago):

YPEA 240930Z AUTO 11009KT 9999 // NCD 26/04 Q1023

TAF (pilot weather forecast)

Closest forecast is RAAF Base Pearce, 119.5 nm (221.3 km) SW. Retrieved 2019/04/24 06:00 UTC (4 hours ago):

TAF YPEA 240516Z 2406/2424 11010KT CAVOK FM241600 09008KT CAVOK